sensor_id;sensor_type;location;lat;lon;timestamp;pressure;altitude;pressure_sealevel;temperature;humidity
51876;BME280;34054;52.100;5.116;2024-03-02T00:00:26;99535.16;;;8.28;100.00
51876;BME280;34054;52.100;5.116;2024-03-02T00:00:59;99537.81;;;8.43;100.00
51876;BME280;34054;52.100;5.116;2024-03-02T00:01:30;99539.19;;;8.41;100.00
51876;BME280;34054;52.100;5.116;2024-03-02T00:02:02;99529.47;;;8.29;100.00
51876;BME280;34054;52.100;5.116;2024-03-02T00:02:40;99542.72;;;8.36;100.00
51876;BME280;34054;52.100;5.116;2024-03-02T00:03:12;99551.06;;;8.45;100.00
51876;BME280;34054;52.100;5.116;2024-03-02T00:03:45;99551.38;;;8.48;100.00
51876;BME280;34054;52.100;5.116;2024-03-02T00:04:17;99540.53;;;8.43;100.00
51876;BME280;34054;52.100;5.116;2024-03-02T00:04:49;99573.81;;;8.54;100.00
51876;BME280;34054;52.100;5.116;2024-03-02T00:05:22;99568.41;;;8.59;100.00
51876;BME280;34054;52.100;5.116;2024-03-02T00:05:55;99585.19;;;8.56;100.00
51876;BME280;34054;52.100;5.116;2024-03-02T00:06:28;99587.03;;;8.66;100.00
51876;BME280;34054;52.100;5.116;2024-03-02T00:06:59;99586.00;;;8.62;100.00
51876;BME280;34054;52.100;5.116;2024-03-02T00:07:31;99597.06;;;8.66;100.00
51876;BME280;34054;52.100;5.116;2024-03-02T00:08:04;99601.38;;;8.72;100.00
51876;BME280;34054;52.100;5.116;2024-03-02T00:08:38;99593.50;;;8.75;100.00
51876;BME280;34054;52.100;5.116;2024-03-02T00:09:11;99594.06;;;8.83;100.00
51876;BME280;34054;52.100;5.116;2024-03-02T00:09:44;99608.94;;;8.85;100.00
51876;BME280;34054;52.100;5.116;2024-03-02T00:10:16;99633.84;;;8.82;100.00
51876;BME280;34054;52.100;5.116;2024-03-02T00:10:52;99646.03;;;8.79;100.00
51876;BME280;34054;52.100;5.116;2024-03-02T00:11:29;99655.28;;;8.63;100.00
51876;BME280;34054;52.100;5.116;2024-03-02T00:12:03;99643.38;;;8.54;100.00
51876;BME280;34054;52.100;5.116;2024-03-02T00:12:34;99652.81;;;8.67;100.00
51876;BME280;34054;52.100;5.116;2024-03-02T00:13:07;99648.78;;;8.64;100.00
51876;BME280;34054;52.100;5.116;2024-03-02T00:13:40;99652.56;;;8.53;100.00
51876;BME280;34054;52.100;5.116;2024-03-02T00:14:12;99661.22;;;8.44;100.00
51876;BME280;34054;52.100;5.116;2024-03-02T00:14:43;99643.88;;;8.40;100.00
51876;BME280;34054;52.100;5.116;2024-03-02T00:15:35;99633.09;;;8.20;100.00
51876;BME280;34054;52.100;5.116;2024-03-02T00:16:12;99633.88;;;8.20;100.00
51876;BME280;34054;52.100;5.116;2024-03-02T00:16:44;99630.63;;;8.13;100.00
51876;BME280;34054;52.100;5.116;2024-03-02T00:17:24;99627.41;;;8.16;100.00
51876;BME280;34054;52.100;5.116;2024-03-02T00:17:56;99637.94;;;8.28;100.00
51876;BME280;34054;52.100;5.116;2024-03-02T00:18:31;99634.16;;;8.13;100.00
51876;BME280;34054;52.100;5.116;2024-03-02T00:19:05;99646.59;;;7.94;100.00
51876;BME280;34054;52.100;5.116;2024-03-02T00:19:38;99649.81;;;7.91;100.00
51876;BME280;34054;52.100;5.116;2024-03-02T00:20:15;99650.66;;;8.01;100.00
51876;BME280;34054;52.100;5.116;2024-03-02T00:20:53;99660.09;;;7.99;100.00
51876;BME280;34054;52.100;5.116;2024-03-02T00:21:29;99660.31;;;7.66;100.00
51876;BME280;34054;52.100;5.116;2024-03-02T00:22:02;99650.03;;;7.58;100.00
51876;BME280;34054;52.100;5.116;2024-03-02T00:22:35;99655.44;;;7.58;100.00
51876;BME280;34054;52.100;5.116;2024-03-02T00:23:08;99659.50;;;7.61;100.00
51876;BME280;34054;52.100;5.116;2024-03-02T00:23:43;99648.16;;;7.69;100.00
51876;BME280;34054;52.100;5.116;2024-03-02T00:24:20;99660.88;;;7.74;100.00
51876;BME280;34054;52.100;5.116;2024-03-02T00:24:56;99656.81;;;7.76;100.00
51876;BME280;34054;52.100;5.116;2024-03-02T00:25:27;99657.91;;;7.70;100.00
51876;BME280;34054;52.100;5.116;2024-03-02T00:26:11;99650.06;;;7.79;100.00
51876;BME280;34054;52.100;5.116;2024-03-02T00:26:44;99644.13;;;7.87;100.00
51876;BME280;34054;52.100;5.116;2024-03-02T00:27:18;99646.84;;;7.82;100.00
51876;BME280;34054;52.100;5.116;2024-03-02T00:27:51;99652.22;;;7.66;100.00
51876;BME280;34054;52.100;5.116;2024-03-02T00:28:24;99650.31;;;7.62;100.00
51876;BME280;34054;52.100;5.116;2024-03-02T00:28:59;99652.97;;;7.46;100.00
51876;BME280;34054;52.100;5.116;2024-03-02T00:29:31;99647.56;;;7.46;100.00
51876;BME280;34054;52.100;5.116;2024-03-02T00:30:06;99659.22;;;7.57;100.00
51876;BME280;34054;52.100;5.116;2024-03-02T00:31:14;99653.03;;;7.72;100.00
51876;BME280;34054;52.100;5.116;2024-03-02T00:31:46;99647.88;;;7.70;100.00
51876;BME280;34054;52.100;5.116;2024-03-02T00:32:19;99662.16;;;7.55;100.00
51876;BME280;34054;52.100;5.116;2024-03-02T00:32:52;99663.00;;;7.61;100.00
51876;BME280;34054;52.100;5.116;2024-03-02T00:33:27;99675.66;;;7.50;100.00
51876;BME280;34054;52.100;5.116;2024-03-02T00:34:05;99665.38;;;7.37;100.00
51876;BME280;34054;52.100;5.116;2024-03-02T00:34:38;99683.66;;;7.25;100.00
51876;BME280;34054;52.100;5.116;2024-03-02T00:35:09;99672.88;;;7.30;100.00
51876;BME280;34054;52.100;5.116;2024-03-02T00:35:44;99662.28;;;7.18;100.00
51876;BME280;34054;52.100;5.116;2024-03-02T00:36:17;99668.75;;;7.17;100.00
51876;BME280;34054;52.100;5.116;2024-03-02T00:36:57;99667.41;;;7.14;100.00
51876;BME280;34054;52.100;5.116;2024-03-02T00:37:30;99672.25;;;7.07;100.00
51876;BME280;34054;52.100;5.116;2024-03-02T00:38:04;99661.72;;;7.05;100.00
51876;BME280;34054;52.100;5.116;2024-03-02T00:38:44;99659.03;;;7.11;100.00
51876;BME280;34054;52.100;5.116;2024-03-02T00:39:18;99666.63;;;7.19;100.00
51876;BME280;34054;52.100;5.116;2024-03-02T00:39:50;99656.88;;;7.18;100.00
51876;BME280;34054;52.100;5.116;2024-03-02T00:40:21;99662.91;;;7.30;100.00
51876;BME280;34054;52.100;5.116;2024-03-02T00:40:59;99652.94;;;7.36;100.00
51876;BME280;34054;52.100;5.116;2024-03-02T00:41:36;99658.06;;;7.37;100.00
51876;BME280;34054;52.100;5.116;2024-03-02T00:42:07;99661.75;;;7.16;100.00
51876;BME280;34054;52.100;5.116;2024-03-02T00:42:40;99637.13;;;7.02;100.00
51876;BME280;34054;52.100;5.116;2024-03-02T00:44:16;99666.88;;;7.12;100.00
51876;BME280;34054;52.100;5.116;2024-03-02T00:44:52;99677.06;;;7.00;100.00
51876;BME280;34054;52.100;5.116;2024-03-02T00:45:24;99672.25;;;7.07;100.00
51876;BME280;34054;52.100;5.116;2024-03-02T00:45:56;99660.09;;;7.04;100.00
51876;BME280;34054;52.100;5.116;2024-03-02T00:46:32;99655.19;;;6.96;100.00
51876;BME280;34054;52.100;5.116;2024-03-02T00:47:04;99654.13;;;7.02;100.00
51876;BME280;34054;52.100;5.116;2024-03-02T00:47:38;99666.00;;;7.01;100.00
51876;BME280;34054;52.100;5.116;2024-03-02T00:48:10;99657.84;;;6.91;100.00
51876;BME280;34054;52.100;5.116;2024-03-02T00:48:51;99654.59;;;6.89;100.00
51876;BME280;34054;52.100;5.116;2024-03-02T00:49:25;99654.41;;;7.01;100.00
51876;BME280;34054;52.100;5.116;2024-03-02T00:49:59;99660.94;;;7.10;100.00
51876;BME280;34054;52.100;5.116;2024-03-02T00:50:31;99657.66;;;7.08;100.00
51876;BME280;34054;52.100;5.116;2024-03-02T00:51:04;99654.69;;;7.10;100.00
51876;BME280;34054;52.100;5.116;2024-03-02T00:51:35;99661.47;;;7.12;100.00
51876;BME280;34054;52.100;5.116;2024-03-02T00:52:09;99662.78;;;7.04;100.00
51876;BME280;34054;52.100;5.116;2024-03-02T00:52:41;99657.66;;;7.03;100.00
51876;BME280;34054;52.100;5.116;2024-03-02T00:53:12;99667.63;;;7.02;100.00
51876;BME280;34054;52.100;5.116;2024-03-02T00:53:45;99664.66;;;7.04;100.00
51876;BME280;34054;52.100;5.116;2024-03-02T00:54:19;99666.06;;;7.17;100.00
51876;BME280;34054;52.100;5.116;2024-03-02T00:54:53;99663.63;;;7.10;100.00
51876;BME280;34054;52.100;5.116;2024-03-02T00:55:28;99666.28;;;7.05;100.00
51876;BME280;34054;52.100;5.116;2024-03-02T00:56:01;99666.00;;;7.01;100.00
51876;BME280;34054;52.100;5.116;2024-03-02T00:56:34;99678.97;;;7.04;100.00
51876;BME280;34054;52.100;5.116;2024-03-02T00:57:10;99678.69;;;7.01;100.00
51876;BME280;34054;52.100;5.116;2024-03-02T00:57:44;99676.84;;;7.06;100.00
51876;BME280;34054;52.100;5.116;2024-03-02T00:58:17;99667.88;;;7.01;100.00
51876;BME280;34054;52.100;5.116;2024-03-02T00:58:49;99671.75;;;7.15;100.00
51876;BME280;34054;52.100;5.116;2024-03-02T00:59:21;99661.22;;;7.14;100.00
51876;BME280;34054;52.100;5.116;2024-03-02T00:59:53;99676.72;;;6.91;100.00
51876;BME280;34054;52.100;5.116;2024-03-02T01:00:25;99671.38;;;6.96;100.00
51876;BME280;34054;52.100;5.116;2024-03-02T01:00:57;99666.75;;;6.86;100.00
51876;BME280;34054;52.100;5.116;2024-03-02T01:01:28;99661.63;;;6.90;100.00
51876;BME280;34054;52.100;5.116;2024-03-02T01:02:00;99666.75;;;6.91;100.00
51876;BME280;34054;52.100;5.116;2024-03-02T01:02:32;99662.16;;;6.92;100.00
51876;BME280;34054;52.100;5.116;2024-03-02T01:03:04;99670.38;;;7.07;100.00
51876;BME280;34054;52.100;5.116;2024-03-02T01:03:35;99660.66;;;7.12;100.00
51876;BME280;34054;52.100;5.116;2024-03-02T01:04:08;99661.22;;;7.14;100.00
51876;BME280;34054;52.100;5.116;2024-03-02T01:04:40;99663.63;;;7.15;100.00
51876;BME280;34054;52.100;5.116;2024-03-02T01:05:12;99651.72;;;7.06;100.00
51876;BME280;34054;52.100;5.116;2024-03-02T01:05:44;99659.59;;;7.18;100.00
51876;BME280;34054;52.100;5.116;2024-03-02T01:06:16;99652.31;;;7.23;100.00
51876;BME280;34054;52.100;5.116;2024-03-02T01:06:50;99657.78;;;7.34;100.00
51876;BME280;34054;52.100;5.116;2024-03-02T01:07:21;99658.06;;;7.32;100.00
51876;BME280;34054;52.100;5.116;2024-03-02T01:07:53;99644.56;;;7.37;100.00
51876;BME280;34054;52.100;5.116;2024-03-02T01:08:24;99643.75;;;7.42;100.00
51876;BME280;34054;52.100;5.116;2024-03-02T01:08:57;99655.88;;;7.34;100.00
51876;BME280;34054;52.100;5.116;2024-03-02T01:09:29;99666.41;;;7.31;100.00
51876;BME280;34054;52.100;5.116;2024-03-02T01:10:00;99667.34;;;7.04;100.00
51876;BME280;34054;52.100;5.116;2024-03-02T01:10:32;99658.09;;;6.84;100.00
51876;BME280;34054;52.100;5.116;2024-03-02T01:11:05;99665.97;;;6.96;100.00
51876;BME280;34054;52.100;5.116;2024-03-02T01:11:36;99669.03;;;7.10;100.00
51876;BME280;34054;52.100;5.116;2024-03-02T01:12:08;99673.09;;;7.18;100.00
51876;BME280;34054;52.100;5.116;2024-03-02T01:12:40;99672.59;;;7.26;100.00
51876;BME280;34054;52.100;5.116;2024-03-02T01:13:13;99675.34;;;7.31;100.00
51876;BME280;34054;52.100;5.116;2024-03-02T01:13:45;99674.78;;;7.29;100.00
51876;BME280;34054;52.100;5.116;2024-03-02T01:14:17;99677.53;;;7.39;100.00
51876;BME280;34054;52.100;5.116;2024-03-02T01:14:49;99670.50;;;7.44;100.00
51876;BME280;34054;52.100;5.116;2024-03-02T01:15:21;99673.38;;;7.21;100.00
51876;BME280;34054;52.100;5.116;2024-03-02T01:15:53;99673.38;;;7.16;100.00
51876;BME280;34054;52.100;5.116;2024-03-02T01:16:24;99675.22;;;7.11;100.00
51876;BME280;34054;52.100;5.116;2024-03-02T01:16:57;99668.47;;;7.08;100.00
51876;BME280;34054;52.100;5.116;2024-03-02T01:17:29;99669.59;;;7.22;100.00
51876;BME280;34054;52.100;5.116;2024-03-02T01:18:00;99682.25;;;7.17;100.00
51876;BME280;34054;52.100;5.116;2024-03-02T01:18:32;99665.41;;;6.94;100.00
51876;BME280;34054;52.100;5.116;2024-03-02T01:19:05;99670.25;;;6.87;100.00
51876;BME280;34054;52.100;5.116;2024-03-02T01:19:36;99668.63;;;6.91;100.00
51876;BME280;34054;52.100;5.116;2024-03-02T01:20:09;99684.09;;;7.01;100.00
51876;BME280;34054;52.100;5.116;2024-03-02T01:20:41;99677.91;;;7.11;100.00
51876;BME280;34054;52.100;5.116;2024-03-02T01:21:14;99681.69;;;7.04;100.00
51876;BME280;34054;52.100;5.116;2024-03-02T01:21:46;99687.66;;;7.12;100.00
51876;BME280;34054;52.100;5.116;2024-03-02T01:22:18;99672.53;;;7.11;100.00
51876;BME280;34054;52.100;5.116;2024-03-02T01:22:56;99679.59;;;7.22;100.00
51876;BME280;34054;52.100;5.116;2024-03-02T01:23:28;99683.31;;;7.11;100.00
51876;BME280;34054;52.100;5.116;2024-03-02T01:24:00;99674.22;;;7.22;100.00
51876;BME280;34054;52.100;5.116;2024-03-02T01:24:32;99677.47;;;7.29;100.00
51876;BME280;34054;52.100;5.116;2024-03-02T01:25:04;99686.34;;;7.19;100.00
51876;BME280;34054;52.100;5.116;2024-03-02T01:25:37;99683.66;;;7.25;100.00
51876;BME280;34054;52.100;5.116;2024-03-02T01:26:08;99687.13;;;7.15;100.00
51876;BME280;34054;52.100;5.116;2024-03-02T01:26:40;99682.22;;;7.06;100.00
51876;BME280;34054;52.100;5.116;2024-03-02T01:27:12;99678.97;;;6.99;100.00
51876;BME280;34054;52.100;5.116;2024-03-02T01:27:44;99682.19;;;7.01;100.00
51876;BME280;34054;52.100;5.116;2024-03-02T01:28:17;99674.38;;;7.05;100.00
51876;BME280;34054;52.100;5.116;2024-03-02T01:28:49;99675.69;;;6.97;100.00
51876;BME280;34054;52.100;5.116;2024-03-02T01:29:22;99670.81;;;6.94;100.00
51876;BME280;34054;52.100;5.116;2024-03-02T01:29:53;99674.94;;;7.07;100.00
51876;BME280;34054;52.100;5.116;2024-03-02T01:30:25;99667.66;;;7.07;100.00
51876;BME280;34054;52.100;5.116;2024-03-02T01:30:57;99677.91;;;7.11;100.00
51876;BME280;34054;52.100;5.116;2024-03-02T01:31:29;99678.47;;;7.13;100.00
51876;BME280;34054;52.100;5.116;2024-03-02T01:32:01;99683.38;;;7.21;100.00
51876;BME280;34054;52.100;5.116;2024-03-02T01:32:32;99686.28;;;7.09;100.00
51876;BME280;34054;52.100;5.116;2024-03-02T01:33:04;99689.56;;;7.16;100.00
51876;BME280;34054;52.100;5.116;2024-03-02T01:33:37;99690.91;;;7.14;100.00
51876;BME280;34054;52.100;5.116;2024-03-02T01:34:09;99696.09;;;7.20;100.00
51876;BME280;34054;52.100;5.116;2024-03-02T01:34:40;99695.44;;;7.03;100.00
51876;BME280;34054;52.100;5.116;2024-03-02T01:35:12;99684.88;;;7.01;100.00
51876;BME280;34054;52.100;5.116;2024-03-02T01:35:45;99686.00;;;7.05;100.00
51876;BME280;34054;52.100;5.116;2024-03-02T01:36:17;99697.66;;;7.11;100.00
51876;BME280;34054;52.100;5.116;2024-03-02T01:36:49;99689.50;;;7.06;100.00
51876;BME280;34054;52.100;5.116;2024-03-02T01:37:21;99687.09;;;7.10;100.00
51876;BME280;34054;52.100;5.116;2024-03-02T01:37:53;99680.13;;;7.14;100.00
51876;BME280;34054;52.100;5.116;2024-03-02T01:38:25;99683.59;;;7.14;100.00
51876;BME280;34054;52.100;5.116;2024-03-02T01:38:56;99681.94;;;7.03;100.00
51876;BME280;34054;52.100;5.116;2024-03-02T01:39:29;99677.13;;;7.10;100.00
51876;BME280;34054;52.100;5.116;2024-03-02T01:40:00;99684.97;;;7.17;100.00
51876;BME280;34054;52.100;5.116;2024-03-02T01:40:33;99680.91;;;7.14;100.00
51876;BME280;34054;52.100;5.116;2024-03-02T01:41:05;99685.25;;;7.15;100.00
51876;BME280;34054;52.100;5.116;2024-03-02T01:41:37;99695.19;;;7.04;100.00
51876;BME280;34054;52.100;5.116;2024-03-02T01:42:09;99683.81;;;7.02;100.00
51876;BME280;34054;52.100;5.116;2024-03-02T01:42:43;99687.13;;;7.15;100.00
51876;BME280;34054;52.100;5.116;2024-03-02T01:43:14;99686.03;;;7.11;100.00
51876;BME280;34054;52.100;5.116;2024-03-02T01:43:48;99691.97;;;7.07;100.00
51876;BME280;34054;52.100;5.116;2024-03-02T01:44:20;99687.66;;;7.12;100.00
51876;BME280;34054;52.100;5.116;2024-03-02T01:44:52;99693.84;;;7.07;100.00
51876;BME280;34054;52.100;5.116;2024-03-02T01:45:24;99697.31;;;7.02;100.00
51876;BME280;34054;52.100;5.116;2024-03-02T01:45:56;99697.03;;;6.99;100.00
51876;BME280;34054;52.100;5.116;2024-03-02T01:46:28;99702.34;;;6.88;100.00
51876;BME280;34054;52.100;5.116;2024-03-02T01:47:00;99699.16;;;6.97;100.00
51876;BME280;34054;52.100;5.116;2024-03-02T01:47:32;99698.94;;;7.03;100.00
51876;BME280;34054;52.100;5.116;2024-03-02T01:48:04;99701.56;;;6.93;100.00
51876;BME280;34054;52.100;5.116;2024-03-02T01:48:38;99702.50;;;7.09;100.00
51876;BME280;34054;52.100;5.116;2024-03-02T01:49:09;99698.63;;;6.95;100.00
51876;BME280;34054;52.100;5.116;2024-03-02T01:49:41;99702.66;;;6.92;100.00
51876;BME280;34054;52.100;5.116;2024-03-02T01:50:13;99705.81;;;6.79;100.00
51876;BME280;34054;52.100;5.116;2024-03-02T01:50:45;99706.88;;;6.78;100.00
51876;BME280;34054;52.100;5.116;2024-03-02T01:51:17;99717.22;;;6.91;100.00
51876;BME280;34054;52.100;5.116;2024-03-02T01:51:49;99714.00;;;6.94;100.00
51876;BME280;34054;52.100;5.116;2024-03-02T01:52:21;99710.25;;;7.00;100.00
51876;BME280;34054;52.100;5.116;2024-03-02T01:52:52;99717.56;;;7.05;100.00
51876;BME280;34054;52.100;5.116;2024-03-02T01:53:24;99710.31;;;7.05;100.00
51876;BME280;34054;52.100;5.116;2024-03-02T01:53:57;99707.06;;;7.08;100.00
51876;BME280;34054;52.100;5.116;2024-03-02T01:54:29;99707.03;;;7.03;100.00
51876;BME280;34054;52.100;5.116;2024-03-02T01:55:01;99710.81;;;7.02;100.00
51876;BME280;34054;52.100;5.116;2024-03-02T01:55:32;99704.25;;;6.88;100.00
51876;BME280;34054;52.100;5.116;2024-03-02T01:56:05;99707.72;;;6.78;100.00
51876;BME280;34054;52.100;5.116;2024-03-02T01:56:37;99710.34;;;6.73;100.00
51876;BME280;34054;52.100;5.116;2024-03-02T01:57:09;99718.25;;;6.80;100.00
51876;BME280;34054;52.100;5.116;2024-03-02T01:57:40;99717.75;;;6.88;100.00
51876;BME280;34054;52.100;5.116;2024-03-02T01:58:12;99717.66;;;6.78;100.00
51876;BME280;34054;52.100;5.116;2024-03-02T01:58:44;99713.91;;;6.79;100.00
51876;BME280;34054;52.100;5.116;2024-03-02T01:59:18;99712.31;;;6.83;100.00
51876;BME280;34054;52.100;5.116;2024-03-02T01:59:49;99708.69;;;6.67;100.00
51876;BME280;34054;52.100;5.116;2024-03-02T02:00:22;99702.25;;;6.68;100.00
51876;BME280;34054;52.100;5.116;2024-03-02T02:00:56;99700.69;;;6.77;100.00
51876;BME280;34054;52.100;5.116;2024-03-02T02:01:27;99701.28;;;6.84;100.00
51876;BME280;34054;52.100;5.116;2024-03-02T02:01:59;99705.00;;;6.78;100.00
51876;BME280;34054;52.100;5.116;2024-03-02T02:02:32;99697.94;;;6.72;100.00
51876;BME280;34054;52.100;5.116;2024-03-02T02:03:04;99692.81;;;6.75;100.00
51876;BME280;34054;52.100;5.116;2024-03-02T02:03:35;99702.53;;;6.71;100.00
51876;BME280;34054;52.100;5.116;2024-03-02T02:04:08;99702.81;;;6.75;100.00
51876;BME280;34054;52.100;5.116;2024-03-02T02:04:40;99704.16;;;6.72;100.00
51876;BME280;34054;52.100;5.116;2024-03-02T02:05:12;99657.34;;;6.56;100.00
51876;BME280;34054;52.100;5.116;2024-03-02T02:05:44;99706.28;;;6.70;100.00
51876;BME280;34054;52.100;5.116;2024-03-02T02:06:19;99707.16;;;6.76;100.00
51876;BME280;34054;52.100;5.116;2024-03-02T02:06:50;99706.28;;;6.70;100.00
51876;BME280;34054;52.100;5.116;2024-03-02T02:07:22;99705.06;;;6.88;100.00
51876;BME280;34054;52.100;5.116;2024-03-02T02:07:54;99706.47;;;6.96;100.00
51876;BME280;34054;52.100;5.116;2024-03-02T02:08:29;99704.75;;;6.85;100.00
51876;BME280;34054;52.100;5.116;2024-03-02T02:09:01;99681.16;;;6.65;100.00
51876;BME280;34054;52.100;5.116;2024-03-02T02:09:32;99713.94;;;6.84;100.00
51876;BME280;34054;52.100;5.116;2024-03-02T02:10:04;99709.94;;;6.86;100.00
51876;BME280;34054;52.100;5.116;2024-03-02T02:10:37;99715.13;;;6.98;100.00
51876;BME280;34054;52.100;5.116;2024-03-02T02:11:09;99712.63;;;6.86;100.00
51876;BME280;34054;52.100;5.116;2024-03-02T02:11:41;99715.06;;;6.88;100.00
51876;BME280;34054;52.100;5.116;2024-03-02T02:12:14;99719.09;;;6.85;100.00
51876;BME280;34054;52.100;5.116;2024-03-02T02:12:47;99713.91;;;6.79;100.00
51876;BME280;34054;52.100;5.116;2024-03-02T02:13:18;99720.00;;;6.64;100.00
51876;BME280;34054;52.100;5.116;2024-03-02T02:13:50;99721.50;;;6.49;100.00
51876;BME280;34054;52.100;5.116;2024-03-02T02:14:23;99726.22;;;6.64;100.00
51876;BME280;34054;52.100;5.116;2024-03-02T02:14:56;99726.72;;;6.61;100.00
51876;BME280;34054;52.100;5.116;2024-03-02T02:15:29;99724.81;;;6.62;100.00
51876;BME280;34054;52.100;5.116;2024-03-02T02:16:05;99712.13;;;6.57;100.00
51876;BME280;34054;52.100;5.116;2024-03-02T02:16:38;99714.03;;;6.62;100.00
51876;BME280;34054;52.100;5.116;2024-03-02T02:17:10;99718.41;;;6.68;100.00
51876;BME280;34054;52.100;5.116;2024-03-02T02:17:41;99702.31;;;6.78;100.00
51876;BME280;34054;52.100;5.116;2024-03-02T02:18:13;99703.59;;;6.70;100.00
51876;BME280;34054;52.100;5.116;2024-03-02T02:18:45;99695.28;;;6.77;100.00
51876;BME280;34054;52.100;5.116;2024-03-02T02:19:17;99687.69;;;6.74;100.00
51876;BME280;34054;52.100;5.116;2024-03-02T02:19:49;99691.75;;;6.76;100.00
51876;BME280;34054;52.100;5.116;2024-03-02T02:20:20;99682.59;;;6.78;100.00
51876;BME280;34054;52.100;5.116;2024-03-02T02:20:53;99686.41;;;6.82;100.00
51876;BME280;34054;52.100;5.116;2024-03-02T02:21:25;99668.72;;;6.64;100.00
51876;BME280;34054;52.100;5.116;2024-03-02T02:21:58;99685.66;;;6.54;100.00
51876;BME280;34054;52.100;5.116;2024-03-02T02:22:29;99677.03;;;6.57;100.00
51876;BME280;34054;52.100;5.116;2024-03-02T02:23:02;99693.06;;;6.69;100.00
51876;BME280;34054;52.100;5.116;2024-03-02T02:23:36;99694.63;;;6.59;100.00
51876;BME280;34054;52.100;5.116;2024-03-02T02:24:07;99696.53;;;6.64;100.00
51876;BME280;34054;52.100;5.116;2024-03-02T02:24:40;99687.91;;;6.67;100.00
51876;BME280;34054;52.100;5.116;2024-03-02T02:25:13;99682.78;;;6.66;100.00
51876;BME280;34054;52.100;5.116;2024-03-02T02:25:44;99684.63;;;6.60;100.00
51876;BME280;34054;52.100;5.116;2024-03-02T02:26:16;99678.47;;;6.65;100.00
51876;BME280;34054;52.100;5.116;2024-03-02T02:26:47;99688.75;;;6.68;100.00
51876;BME280;34054;52.100;5.116;2024-03-02T02:27:20;99678.34;;;6.49;100.00
51876;BME280;34054;52.100;5.116;2024-03-02T02:27:52;99684.84;;;6.53;100.00
51876;BME280;34054;52.100;5.116;2024-03-02T02:28:24;99682.38;;;6.47;100.00
51876;BME280;34054;52.100;5.116;2024-03-02T02:28:55;99692.69;;;6.55;100.00
51876;BME280;34054;52.100;5.116;2024-03-02T02:29:28;99692.22;;;6.63;100.00
51876;BME280;34054;52.100;5.116;2024-03-02T02:29:59;99697.06;;;6.61;100.00
51876;BME280;34054;52.100;5.116;2024-03-02T02:30:32;99691.06;;;6.54;100.00
51876;BME280;34054;52.100;5.116;2024-03-02T02:31:05;99684.59;;;6.55;100.00
51876;BME280;34054;52.100;5.116;2024-03-02T02:31:37;99692.41;;;6.51;100.00
51876;BME280;34054;52.100;5.116;2024-03-02T02:32:09;99695.09;;;6.51;100.00
51876;BME280;34054;52.100;5.116;2024-03-02T02:32:41;99696.41;;;6.49;100.00
51876;BME280;34054;52.100;5.116;2024-03-02T02:33:13;99683.19;;;6.47;100.00
51876;BME280;34054;52.100;5.116;2024-03-02T02:33:45;99695.13;;;6.56;100.00
51876;BME280;34054;52.100;5.116;2024-03-02T02:34:17;99704.59;;;6.59;100.00
51876;BME280;34054;52.100;5.116;2024-03-02T02:34:52;99706.78;;;6.62;100.00
51876;BME280;34054;52.100;5.116;2024-03-02T02:35:23;99711.09;;;6.63;100.00
51876;BME280;34054;52.100;5.116;2024-03-02T02:35:55;99711.31;;;6.56;100.00
51876;BME280;34054;52.100;5.116;2024-03-02T02:36:28;99712.47;;;6.66;100.00
51876;BME280;34054;52.100;5.116;2024-03-02T02:37:00;99701.16;;;6.69;100.00
51876;BME280;34054;52.100;5.116;2024-03-02T02:37:32;99706.81;;;6.67;100.00
51876;BME280;34054;52.100;5.116;2024-03-02T02:38:04;99701.59;;;6.55;100.00
51876;BME280;34054;52.100;5.116;2024-03-02T02:38:39;99706.22;;;6.60;100.00
51876;BME280;34054;52.100;5.116;2024-03-02T02:39:17;99700.25;;;6.58;100.00
51876;BME280;34054;52.100;5.116;2024-03-02T02:39:52;99696.97;;;6.51;100.00
51876;BME280;34054;52.100;5.116;2024-03-02T02:40:24;99708.91;;;6.60;100.00
51876;BME280;34054;52.100;5.116;2024-03-02T02:40:56;99697.53;;;6.53;100.00
51876;BME280;34054;52.100;5.116;2024-03-02T02:41:28;99700.72;;;6.50;100.00
51876;BME280;34054;52.100;5.116;2024-03-02T02:41:59;99700.03;;;6.65;100.00
51876;BME280;34054;52.100;5.116;2024-03-02T02:42:32;99710.50;;;6.56;100.00
51876;BME280;34054;52.100;5.116;2024-03-02T02:43:04;99703.50;;;6.55;100.00
51876;BME280;34054;52.100;5.116;2024-03-02T02:43:36;99700.78;;;6.55;100.00
51876;BME280;34054;52.100;5.116;2024-03-02T02:44:08;99707.88;;;6.66;100.00
51876;BME280;34054;52.100;5.116;2024-03-02T02:44:39;99712.75;;;6.69;100.00
51876;BME280;34054;52.100;5.116;2024-03-02T02:45:12;99704.16;;;6.72;100.00
51876;BME280;34054;52.100;5.116;2024-03-02T02:45:45;99703.13;;;6.79;100.00
51876;BME280;34054;52.100;5.116;2024-03-02T02:46:16;99705.25;;;6.76;100.00
51876;BME280;34054;52.100;5.116;2024-03-02T02:46:48;99700.38;;;6.73;100.00
51876;BME280;34054;52.100;5.116;2024-03-02T02:47:20;99695.22;;;6.72;100.00
51876;BME280;34054;52.100;5.116;2024-03-02T02:47:52;99703.56;;;6.65;100.00
51876;BME280;34054;52.100;5.116;2024-03-02T02:48:23;99704.94;;;6.68;100.00
51876;BME280;34054;52.100;5.116;2024-03-02T02:48:55;99704.44;;;6.76;100.00
51876;BME280;34054;52.100;5.116;2024-03-02T02:49:27;99706.84;;;6.72;100.00
51876;BME280;34054;52.100;5.116;2024-03-02T02:49:59;99703.03;;;6.68;100.00
51876;BME280;34054;52.100;5.116;2024-03-02T02:50:30;99700.88;;;6.65;100.00
51876;BME280;34054;52.100;5.116;2024-03-02T02:51:03;99704.81;;;6.52;100.00
51876;BME280;34054;52.100;5.116;2024-03-02T02:51:36;99703.03;;;6.68;100.00
51876;BME280;34054;52.100;5.116;2024-03-02T02:52:08;99705.72;;;6.68;100.00
51876;BME280;34054;52.100;5.116;2024-03-02T02:52:41;99700.13;;;6.75;100.00
51876;BME280;34054;52.100;5.116;2024-03-02T02:53:13;99712.47;;;6.66;100.00
51876;BME280;34054;52.100;5.116;2024-03-02T02:53:45;99705.72;;;6.68;100.00
51876;BME280;34054;52.100;5.116;2024-03-02T02:54:17;99707.38;;;6.69;100.00
51876;BME280;34054;52.100;5.116;2024-03-02T02:54:49;99693.19;;;6.52;100.00
51876;BME280;34054;52.100;5.116;2024-03-02T02:55:20;99710.84;;;6.65;100.00